Time;durP1;ratioP1;P1;durP2;ratioP2;P2;SDS_P1;SDS_P2;PMS_P1;PMS_P2;Temp;Humidity;BMP_temperature;BMP_pressure;BME280_temperature;BME280_humidity;BME280_pressure;Samples;Min_cycle;Max_cycle;Signal;HPM_P1;HPM_P2
2022/07/05 00:00:48;;;;;;;0.40;0.40;;;17.40;99.90;;;;;;5053520;28;20522;-70
2022/07/05 00:03:14;;;;;;;0.30;0.30;;;17.30;99.90;;;;;;5053531;28;20413;-70
2022/07/05 00:05:40;;;;;;;0.30;0.30;;;17.20;99.90;;;;;;5053525;28;20185;-70
2022/07/05 00:08:06;;;;;;;0.60;0.60;;;17.30;99.90;;;;;;5053075;28;20194;-69
2022/07/05 00:10:33;;;;;;;0.40;0.40;;;17.30;99.90;;;;;;5053365;28;20295;-69
2022/07/05 00:12:59;;;;;;;0.30;0.30;;;17.30;99.90;;;;;;5053363;28;20411;-69
2022/07/05 00:15:25;;;;;;;0.40;0.40;;;17.30;99.90;;;;;;5053333;28;20924;-69
2022/07/05 00:17:50;;;;;;;0.30;0.30;;;17.30;99.90;;;;;;5053238;28;20181;-70
2022/07/05 00:20:16;;;;;;;0.70;0.70;;;17.30;99.90;;;;;;5053265;28;20234;-70
2022/07/05 00:22:42;;;;;;;0.30;0.30;;;17.30;99.90;;;;;;5054492;28;20174;-69
2022/07/05 00:25:08;;;;;;;0.30;0.30;;;17.40;99.90;;;;;;5057502;28;20170;-69
2022/07/05 00:27:34;;;;;;;0.30;0.30;;;17.40;99.90;;;;;;5057222;28;20441;-70
2022/07/05 00:30:00;;;;;;;0.50;0.50;;;17.40;99.90;;;;;;5057219;28;20764;-70
2022/07/05 00:32:25;;;;;;;0.40;0.40;;;17.40;99.90;;;;;;5057167;28;20170;-70
2022/07/05 00:34:51;;;;;;;0.40;0.40;;;17.40;99.90;;;;;;5057270;28;20631;-69
2022/07/05 00:37:17;;;;;;;0.40;0.40;;;17.50;99.90;;;;;;5056937;28;20206;-70
2022/07/05 00:39:42;;;;;;;0.30;0.30;;;17.40;99.90;;;;;;5056906;28;20241;-70
2022/07/05 00:42:08;;;;;;;0.30;0.30;;;17.40;99.90;;;;;;5057046;28;20477;-69
2022/07/05 00:44:37;;;;;;;0.40;0.40;;;17.40;99.90;;;;;;5057056;28;20235;-70
2022/07/05 00:47:05;;;;;;;0.37;0.37;;;17.30;99.90;;;;;;5056766;28;20994;-70
2022/07/05 00:49:32;;;;;;;0.50;0.50;;;17.30;99.90;;;;;;5056717;28;20465;-70
2022/07/05 00:51:59;;;;;;;0.40;0.40;;;17.30;99.90;;;;;;5057485;28;20403;-70
2022/07/05 00:54:29;;;;;;;0.57;0.57;;;17.30;99.90;;;;;;5056811;28;20416;-70
2022/07/05 00:56:55;;;;;;;0.30;0.30;;;17.30;99.90;;;;;;5056647;28;20440;-70
2022/07/05 00:59:21;;;;;;;0.30;0.30;;;17.30;99.90;;;;;;5056768;28;20455;-69
2022/07/05 01:01:47;;;;;;;1.87;1.83;;;17.40;99.90;;;;;;5056794;28;20426;-69
2022/07/05 01:04:13;;;;;;;0.40;0.40;;;17.40;99.90;;;;;;5056716;28;20470;-70
2022/07/05 01:06:40;;;;;;;1.27;1.17;;;17.40;99.90;;;;;;5056664;28;20748;-69
2022/07/05 01:09:06;;;;;;;0.50;0.50;;;17.40;99.90;;;;;;5056479;28;20619;-69
2022/07/05 01:11:32;;;;;;;0.30;0.30;;;17.40;99.90;;;;;;5056855;28;20401;-69
2022/07/05 01:14:02;;;;;;;2.93;0.80;;;17.40;99.90;;;;;;5056563;28;20446;-70
2022/07/05 01:16:28;;;;;;;0.77;0.50;;;17.40;99.90;;;;;;5056563;28;20227;-69
2022/07/05 01:18:54;;;;;;;0.50;0.50;;;17.30;99.90;;;;;;5056160;28;20404;-71
2022/07/05 01:21:22;;;;;;;0.40;0.40;;;17.20;99.90;;;;;;5056543;28;20885;-70
2022/07/05 01:23:49;;;;;;;0.87;0.87;;;17.10;99.90;;;;;;5056248;28;20515;-69
2022/07/05 01:26:16;;;;;;;0.30;0.30;;;17.00;99.90;;;;;;5056231;28;20424;-69
2022/07/05 01:28:41;;;;;;;0.30;0.30;;;16.90;99.90;;;;;;5054798;28;20904;-70
2022/07/05 01:31:07;;;;;;;1.57;0.90;;;16.90;99.90;;;;;;5056290;28;20399;-70
2022/07/05 01:33:32;;;;;;;0.30;0.30;;;16.80;99.90;;;;;;5056041;28;20166;-69
2022/07/05 01:35:58;;;;;;;0.30;0.30;;;16.70;99.90;;;;;;5055938;28;20182;-70
2022/07/05 01:38:25;;;;;;;0.33;0.33;;;16.70;99.90;;;;;;5056003;28;20170;-70
2022/07/05 01:40:51;;;;;;;0.43;0.43;;;16.50;99.90;;;;;;5056049;28;20178;-69
2022/07/05 01:43:21;;;;;;;0.30;0.30;;;16.50;99.90;;;;;;5056126;28;20405;-70
2022/07/05 01:45:47;;;;;;;0.30;0.30;;;16.40;99.90;;;;;;5055825;28;20506;-69
2022/07/05 01:48:17;;;;;;;0.40;0.40;;;16.30;99.90;;;;;;5055523;28;20506;-70
2022/07/05 01:50:53;;;;;;;0.30;0.30;;;16.20;99.90;;;;;;5056150;28;20405;-68
2022/07/05 01:53:19;;;;;;;0.43;0.43;;;16.20;99.90;;;;;;5055945;28;20889;-70
2022/07/05 01:55:46;;;;;;;0.30;0.30;;;16.10;99.90;;;;;;5055705;28;20421;-69
2022/07/05 01:58:12;;;;;;;0.30;0.30;;;16.10;99.90;;;;;;5055494;28;20455;-69
2022/07/05 02:00:50;;;;;;;0.30;0.30;;;16.10;99.90;;;;;;5055728;28;20405;-69
2022/07/05 02:03:16;;;;;;;0.30;0.30;;;16.10;99.90;;;;;;5055537;28;20766;-69
2022/07/05 02:05:43;;;;;;;0.43;0.43;;;16.20;99.90;;;;;;5055414;28;20438;-69
2022/07/05 02:08:09;;;;;;;0.30;0.30;;;16.20;99.90;;;;;;5055292;28;20459;-70
2022/07/05 02:10:36;;;;;;;0.30;0.30;;;16.20;99.90;;;;;;5055507;28;20401;-70
2022/07/05 02:13:03;;;;;;;0.30;0.30;;;16.20;99.90;;;;;;5055493;28;20393;-69
2022/07/05 02:15:33;;;;;;;0.50;0.50;;;16.20;99.90;;;;;;5055160;28;20478;-69
2022/07/05 02:18:00;;;;;;;0.50;0.50;;;16.20;99.90;;;;;;5055314;28;20442;-70
2022/07/05 02:20:27;;;;;;;0.30;0.30;;;16.20;99.90;;;;;;5053999;28;20951;-69
2022/07/05 02:22:53;;;;;;;0.60;0.60;;;16.10;99.90;;;;;;5055078;28;20438;-69
2022/07/05 02:25:18;;;;;;;0.30;0.30;;;16.10;99.90;;;;;;5055234;28;20408;-70
2022/07/05 02:27:44;;;;;;;0.30;0.30;;;16.10;99.90;;;;;;5054921;28;20197;-70
2022/07/05 02:30:10;;;;;;;0.30;0.30;;;15.90;99.90;;;;;;5054827;28;20672;-70
2022/07/05 02:32:36;;;;;;;0.30;0.30;;;15.90;99.90;;;;;;5055068;28;20405;-70
2022/07/05 02:35:03;;;;;;;0.87;0.87;;;15.90;99.90;;;;;;5055163;28;20495;-69
2022/07/05 02:37:29;;;;;;;0.30;0.30;;;15.90;99.90;;;;;;5054864;28;20176;-69
2022/07/05 02:39:55;;;;;;;0.30;0.30;;;15.90;99.90;;;;;;5054810;28;20495;-69
2022/07/05 02:42:21;;;;;;;0.30;0.30;;;15.90;99.90;;;;;;5054923;28;20176;-70
2022/07/05 02:44:46;;;;;;;0.33;0.33;;;15.80;99.90;;;;;;5054328;28;20962;-70
2022/07/05 02:47:12;;;;;;;0.30;0.30;;;15.80;99.90;;;;;;5054346;28;20570;-69
2022/07/05 02:49:37;;;;;;;1.10;1.10;;;15.70;99.90;;;;;;5054641;28;20518;-69
2022/07/05 02:52:03;;;;;;;0.30;0.30;;;15.70;99.90;;;;;;5054698;28;20695;-69
2022/07/05 02:54:29;;;;;;;0.30;0.30;;;15.60;99.90;;;;;;5055051;28;20170;-69
2022/07/05 02:56:55;;;;;;;3.40;1.90;;;15.50;99.90;;;;;;5054608;28;20432;-69
2022/07/05 02:59:20;;;;;;;0.30;0.30;;;15.50;99.90;;;;;;5054439;28;20181;-70
2022/07/05 03:01:46;;;;;;;0.30;0.30;;;15.40;99.90;;;;;;5054428;28;20171;-69
2022/07/05 03:04:12;;;;;;;0.30;0.30;;;15.40;99.90;;;;;;5054498;28;20574;-70
2022/07/05 03:06:38;;;;;;;0.30;0.30;;;15.30;99.90;;;;;;5054179;28;20209;-70
2022/07/05 03:09:04;;;;;;;0.30;0.30;;;15.30;99.90;;;;;;5054151;28;20405;-69
2022/07/05 03:11:29;;;;;;;0.30;0.30;;;15.20;99.90;;;;;;5054401;28;20433;-69
2022/07/05 03:13:55;;;;;;;0.40;0.40;;;15.30;99.90;;;;;;5054397;28;20448;-69
2022/07/05 03:16:23;;;;;;;0.50;0.50;;;15.30;99.90;;;;;;5054194;28;20190;-69
2022/07/05 03:18:49;;;;;;;0.97;0.83;;;15.30;99.90;;;;;;5054073;28;20401;-69
2022/07/05 03:21:14;;;;;;;0.30;0.30;;;15.40;99.90;;;;;;5053979;28;20510;-69
2022/07/05 03:23:40;;;;;;;0.40;0.40;;;15.50;99.90;;;;;;5053943;28;20432;-70
2022/07/05 03:26:06;;;;;;;0.40;0.40;;;15.50;99.90;;;;;;5054142;28;20239;-69
2022/07/05 03:28:32;;;;;;;0.30;0.30;;;15.70;99.90;;;;;;5054113;28;20761;-70
2022/07/05 03:30:58;;;;;;;0.30;0.30;;;15.70;99.90;;;;;;5052639;28;20631;-70
2022/07/05 03:33:23;;;;;;;0.30;0.30;;;15.70;99.90;;;;;;5053915;28;20454;-68
2022/07/05 03:35:49;;;;;;;0.30;0.30;;;15.80;99.90;;;;;;5053829;28;20240;-68
2022/07/05 03:38:14;;;;;;;0.30;0.30;;;15.80;99.90;;;;;;5053740;28;20341;-70
2022/07/05 03:40:40;;;;;;;0.30;0.30;;;15.70;99.90;;;;;;5053848;28;20172;-69
2022/07/05 03:43:06;;;;;;;0.30;0.30;;;15.60;99.90;;;;;;5053853;28;20509;-69
2022/07/05 03:45:31;;;;;;;0.30;0.30;;;15.60;99.90;;;;;;5053886;28;20275;-69
2022/07/05 03:47:58;;;;;;;0.30;0.30;;;15.60;99.90;;;;;;5053391;28;20244;-69
2022/07/05 03:50:24;;;;;;;0.30;0.30;;;15.60;99.90;;;;;;5054023;28;20173;-70
2022/07/05 03:52:50;;;;;;;0.30;0.30;;;15.60;99.90;;;;;;5053514;28;20422;-69
2022/07/05 03:55:16;;;;;;;0.30;0.30;;;15.50;99.90;;;;;;5053645;28;20404;-69
2022/07/05 03:57:41;;;;;;;0.30;0.30;;;15.50;99.90;;;;;;5052568;28;20176;-69
2022/07/05 04:00:07;;;;;;;0.30;0.30;;;15.40;99.90;;;;;;5053293;28;20267;-69
2022/07/05 04:02:33;;;;;;;0.40;0.40;;;15.50;99.90;;;;;;5053481;28;20170;-70
2022/07/05 04:04:59;;;;;;;0.40;0.40;;;15.60;99.90;;;;;;5053384;28;20408;-70
2022/07/05 04:07:24;;;;;;;0.30;0.30;;;15.60;99.90;;;;;;5053220;28;20197;-69
2022/07/05 04:09:50;;;;;;;0.40;0.40;;;15.60;99.90;;;;;;5053150;28;20158;-69
2022/07/05 04:12:15;;;;;;;0.30;0.30;;;15.60;99.90;;;;;;5053330;28;20197;-70
2022/07/05 04:14:41;;;;;;;0.30;0.30;;;15.70;99.90;;;;;;5053375;28;20254;-69
2022/07/05 04:17:07;;;;;;;0.30;0.30;;;15.80;99.90;;;;;;5053131;28;20571;-70
2022/07/05 04:19:32;;;;;;;0.30;0.30;;;15.90;99.90;;;;;;5053260;28;20179;-69
2022/07/05 04:21:58;;;;;;;0.40;0.40;;;16.00;99.90;;;;;;5053421;28;20174;-68
2022/07/05 04:24:24;;;;;;;0.30;0.30;;;16.10;99.90;;;;;;5053302;28;20189;-69
2022/07/05 04:26:49;;;;;;;0.30;0.30;;;16.20;99.90;;;;;;5053047;28;20239;-69
2022/07/05 04:29:15;;;;;;;0.40;0.40;;;16.20;99.90;;;;;;5053097;28;20181;-69
2022/07/05 04:31:41;;;;;;;0.30;0.30;;;16.30;99.90;;;;;;5053243;28;20165;-69
2022/07/05 04:34:06;;;;;;;0.30;0.30;;;16.40;99.90;;;;;;5053284;28;20524;-69
2022/07/05 04:36:32;;;;;;;0.60;0.60;;;16.40;99.90;;;;;;5051901;28;20201;-70
2022/07/05 04:38:58;;;;;;;0.40;0.40;;;16.50;99.90;;;;;;5052909;28;20208;-69
2022/07/05 04:41:23;;;;;;;0.50;0.50;;;16.50;99.90;;;;;;5053065;28;20169;-69
2022/07/05 04:43:49;;;;;;;0.30;0.30;;;16.60;99.90;;;;;;5053074;28;20236;-70
2022/07/05 04:46:15;;;;;;;0.30;0.30;;;16.60;99.90;;;;;;5053070;28;20193;-69
2022/07/05 04:48:40;;;;;;;0.67;0.67;;;16.70;99.90;;;;;;5052943;28;20292;-70
2022/07/05 04:51:06;;;;;;;1.50;1.50;;;16.70;99.90;;;;;;5053148;28;20185;-69
2022/07/05 04:53:32;;;;;;;0.80;0.80;;;16.80;99.90;;;;;;5053105;28;20173;-70
2022/07/05 04:55:58;;;;;;;0.63;0.63;;;16.90;99.90;;;;;;5053098;28;20427;-69
2022/07/05 04:58:23;;;;;;;0.30;0.30;;;17.00;99.90;;;;;;5052925;28;20166;-69
2022/07/05 05:00:49;;;;;;;0.60;0.60;;;17.10;99.90;;;;;;5052955;28;20171;-70
2022/07/05 05:03:15;;;;;;;0.30;0.30;;;17.20;99.90;;;;;;5053398;28;20265;-70
2022/07/05 05:05:40;;;;;;;0.40;0.40;;;17.30;99.90;;;;;;5052961;28;20244;-70
2022/07/05 05:08:06;;;;;;;0.97;0.97;;;17.40;99.90;;;;;;5052743;28;20251;-69
2022/07/05 05:10:31;;;;;;;0.40;0.40;;;17.50;99.90;;;;;;5056519;28;20172;-69
2022/07/05 05:12:57;;;;;;;0.40;0.40;;;17.50;99.90;;;;;;5056553;28;20635;-70
2022/07/05 05:15:23;;;;;;;0.40;0.40;;;17.70;99.90;;;;;;5056458;28;20542;-69
2022/07/05 05:17:49;;;;;;;1.83;1.73;;;17.90;99.90;;;;;;5056492;28;20579;-70
2022/07/05 05:20:17;;;;;;;0.30;0.30;;;18.10;99.90;;;;;;5056354;28;20213;-69
2022/07/05 05:22:44;;;;;;;0.40;0.40;;;18.10;98.30;;;;;;5056226;28;20765;-70
2022/07/05 05:25:11;;;;;;;0.30;0.30;;;18.10;97.60;;;;;;5056407;28;20402;-69
2022/07/05 05:27:47;;;;;;;0.30;0.30;;;18.20;97.90;;;;;;5056463;28;20456;-69
2022/07/05 05:30:14;;;;;;;0.30;0.30;;;18.40;98.30;;;;;;5056113;28;20409;-70
2022/07/05 05:32:40;;;;;;;0.30;0.30;;;18.70;98.50;;;;;;5056366;28;20468;-70
2022/07/05 05:35:07;;;;;;;0.40;0.40;;;19.00;98.30;;;;;;5056100;28;20482;-70
2022/07/05 05:37:49;;;;;;;0.30;0.30;;;19.20;98.00;;;;;;5056190;28;20408;-70
2022/07/05 05:40:16;;;;;;;0.30;0.30;;;19.40;97.30;;;;;;5055896;28;20918;-70
2022/07/05 05:42:42;;;;;;;0.30;0.30;;;19.60;96.70;;;;;;5056010;28;20799;-70
2022/07/05 05:45:09;;;;;;;1.73;1.63;;;19.80;97.00;;;;;;5055983;28;20745;-70
2022/07/05 05:47:43;;;;;;;0.30;0.30;;;20.00;96.40;;;;;;5055730;28;20451;-70
2022/07/05 05:50:09;;;;;;;0.30;0.30;;;20.20;96.30;;;;;;5055742;28;20398;-69
2022/07/05 05:52:34;;;;;;;0.30;0.30;;;20.30;96.30;;;;;;5055780;28;20496;-70
2022/07/05 05:55:00;;;;;;;0.30;0.30;;;20.40;95.90;;;;;;5055800;28;20166;-69
2022/07/05 05:57:25;;;;;;;0.30;0.30;;;20.50;95.10;;;;;;5055553;28;20557;-70
2022/07/05 05:59:51;;;;;;;0.30;0.30;;;20.50;95.90;;;;;;5055613;28;20173;-69
2022/07/05 06:02:17;;;;;;;0.30;0.30;;;20.60;95.00;;;;;;5055493;28;20177;-70
2022/07/05 06:04:42;;;;;;;0.30;0.30;;;20.60;93.60;;;;;;5055740;28;20569;-70
2022/07/05 06:07:08;;;;;;;0.30;0.30;;;20.70;93.90;;;;;;5055378;28;20201;-70
2022/07/05 06:09:33;;;;;;;0.30;0.30;;;20.90;95.10;;;;;;5055519;28;20189;-70
2022/07/05 06:11:59;;;;;;;0.37;0.37;;;21.10;93.30;;;;;;5055593;28;20677;-69
2022/07/05 06:14:24;;;;;;;0.87;0.60;;;21.50;93.70;;;;;;5055507;28;20166;-70
2022/07/05 06:16:50;;;;;;;0.30;0.30;;;22.20;92.80;;;;;;5055185;28;20193;-70
2022/07/05 06:19:16;;;;;;;0.30;0.30;;;23.20;92.30;;;;;;5054938;28;20678;-69
2022/07/05 06:21:41;;;;;;;0.30;0.30;;;24.40;90.70;;;;;;5054351;28;20212;-70
2022/07/05 06:24:07;;;;;;;0.40;0.40;;;25.80;84.60;;;;;;5055148;28;20212;-70
2022/07/05 06:26:32;;;;;;;0.30;0.30;;;27.30;80.60;;;;;;5054910;28;20328;-70
2022/07/05 06:28:58;;;;;;;0.60;0.60;;;28.40;75.70;;;;;;5054858;28;20212;-70
2022/07/05 06:31:24;;;;;;;0.47;0.47;;;28.90;67.50;;;;;;5055164;28;20202;-70
2022/07/05 06:33:49;;;;;;;0.30;0.30;;;29.30;68.90;;;;;;5054942;28;20257;-70
2022/07/05 06:36:15;;;;;;;0.60;0.60;;;29.50;64.10;;;;;;5054880;28;20343;-71
2022/07/05 06:38:40;;;;;;;0.30;0.30;;;30.00;62.20;;;;;;5054590;28;20548;-71
2022/07/05 06:41:06;;;;;;;2.20;2.10;;;30.20;62.90;;;;;;5054803;28;20170;-71
2022/07/05 06:43:31;;;;;;;0.30;0.30;;;30.10;60.80;;;;;;5054833;28;20178;-70
2022/07/05 06:45:57;;;;;;;0.50;0.40;;;29.80;60.40;;;;;;5054891;28;20194;-71
2022/07/05 06:48:23;;;;;;;0.40;0.40;;;29.80;61.40;;;;;;5054360;28;20197;-71
2022/07/05 06:50:48;;;;;;;0.40;0.40;;;30.70;60.40;;;;;;5054702;28;20536;-71
2022/07/05 06:53:14;;;;;;;0.30;0.30;;;31.80;57.80;;;;;;5054590;28;20175;-71
2022/07/05 06:55:45;;;;;;;0.30;0.30;;;33.20;55.00;;;;;;5054592;28;20182;-71
2022/07/05 06:58:11;;;;;;;0.40;0.40;;;34.00;52.00;;;;;;5054312;28;20216;-71
2022/07/05 07:00:41;;;;;;;0.30;0.30;;;34.80;48.90;;;;;;5054592;28;20492;-71
2022/07/05 07:03:07;;;;;;;0.30;0.30;;;35.70;46.90;;;;;;5054612;28;20904;-71
2022/07/05 07:05:32;;;;;;;0.30;0.30;;;36.60;44.10;;;;;;5054227;28;20424;-71
2022/07/05 07:10:47;;;;;;;0.40;0.30;;;37.50;40.80;;;;;;5062572;28;20182;-71
2022/07/05 07:13:13;;;;;;;0.30;0.30;;;37.80;41.00;;;;;;5053977;28;20894;-71
2022/07/05 07:15:40;;;;;;;0.30;0.30;;;37.50;40.90;;;;;;5054133;28;20207;-72
2022/07/05 07:18:06;;;;;;;0.40;0.40;;;37.70;41.50;;;;;;5053850;28;20462;-72
2022/07/05 07:20:31;;;;;;;0.40;0.40;;;38.20;40.00;;;;;;5054168;28;20806;-71
2022/07/05 07:22:57;;;;;;;0.40;0.40;;;38.30;36.50;;;;;;5054003;28;20186;-73
2022/07/05 07:25:23;;;;;;;0.47;0.47;;;38.20;36.10;;;;;;5052777;28;20194;-71
2022/07/05 07:27:51;;;;;;;0.30;0.30;;;37.90;35.30;;;;;;5053834;28;20189;-71
2022/07/05 07:30:19;;;;;;;0.30;0.30;;;37.20;35.70;;;;;;5053655;28;20536;-70
2022/07/05 07:32:45;;;;;;;0.30;0.30;;;36.20;36.40;;;;;;5053896;28;20427;-72
2022/07/05 07:35:11;;;;;;;0.40;0.30;;;35.70;37.70;;;;;;5053860;28;20401;-71
2022/07/05 07:37:37;;;;;;;0.40;0.30;;;35.50;38.00;;;;;;5053682;28;20408;-71
2022/07/05 07:40:06;;;;;;;0.70;0.70;;;34.80;39.60;;;;;;5053661;28;20488;-72
2022/07/05 07:42:32;;;;;;;0.40;0.30;;;34.40;41.10;;;;;;5053882;28;20198;-71
2022/07/05 07:44:58;;;;;;;0.40;0.40;;;34.30;40.20;;;;;;5053731;28;20409;-71
2022/07/05 07:47:24;;;;;;;0.63;0.60;;;34.20;41.10;;;;;;5053476;28;20457;-71
2022/07/05 07:49:50;;;;;;;0.40;0.40;;;34.20;37.20;;;;;;5053300;28;20162;-71
2022/07/05 07:52:16;;;;;;;0.40;0.40;;;34.20;37.70;;;;;;5053448;28;20785;-71
2022/07/05 07:54:42;;;;;;;0.40;0.30;;;34.80;35.30;;;;;;5052261;28;20177;-71
2022/07/05 07:57:07;;;;;;;0.40;0.40;;;34.10;35.80;;;;;;5053352;28;20190;-72
2022/07/05 07:59:34;;;;;;;0.60;0.60;;;33.70;35.70;;;;;;5053236;28;20409;-71
2022/07/05 08:02:00;;;;;;;0.40;0.40;;;33.90;37.10;;;;;;5053353;28;20181;-72
2022/07/05 08:04:26;;;;;;;0.37;0.30;;;34.80;39.30;;;;;;5053362;28;20405;-71
2022/07/05 08:06:52;;;;;;;0.30;0.30;;;36.20;35.40;;;;;;5053243;28;20531;-71
2022/07/05 08:09:18;;;;;;;0.30;0.30;;;36.90;34.50;;;;;;5053103;28;21016;-71
2022/07/05 08:11:47;;;;;;;0.30;0.30;;;36.40;35.60;;;;;;5053158;28;20397;-72
2022/07/05 08:14:14;;;;;;;0.40;0.30;;;34.60;36.60;;;;;;5053453;28;20172;-71
2022/07/05 08:16:40;;;;;;;0.33;0.33;;;32.00;38.50;;;;;;5053258;28;20455;-71
2022/07/05 08:21:49;;;;;;;0.60;0.40;;;31.50;39.20;;;;;;5053266;28;20220;-71
2022/07/05 08:24:15;;;;;;;0.40;0.30;;;32.70;39.90;;;;;;5053046;28;20424;-71
2022/07/05 08:26:41;;;;;;;0.50;0.50;;;34.40;37.70;;;;;;5052982;28;20534;-71
2022/07/05 08:29:11;;;;;;;0.40;0.30;;;34.70;35.40;;;;;;5053229;28;20167;-71
2022/07/05 08:31:49;;;;;;;0.30;0.30;;;35.90;34.60;;;;;;5053133;28;20401;-71
2022/07/05 08:34:15;;;;;;;0.30;0.30;;;36.40;36.60;;;;;;5053201;28;20823;-71
2022/07/05 08:36:41;;;;;;;0.33;0.33;;;37.50;37.20;;;;;;5052956;28;20482;-71
2022/07/05 08:39:10;;;;;;;0.40;0.40;;;37.90;35.80;;;;;;5052827;28;20404;-71
2022/07/05 08:41:38;;;;;;;0.40;0.30;;;38.70;33.40;;;;;;5053054;28;20170;-72
2022/07/05 08:44:04;;;;;;;0.40;0.40;;;39.40;31.40;;;;;;5054772;28;20428;-73
2022/07/05 08:46:31;;;;;;;0.40;0.40;;;40.10;29.60;;;;;;5056860;28;20439;-71
2022/07/05 08:49:04;;;;;;;0.47;0.40;;;40.70;31.60;;;;;;5056549;28;20923;-69
2022/07/05 08:51:36;;;;;;;0.40;0.40;;;39.60;31.80;;;;;;5056946;28;20492;-69
2022/07/05 08:54:02;;;;;;;0.40;0.30;;;38.70;33.90;;;;;;5056916;28;20396;-69
2022/07/05 08:56:28;;;;;;;1.13;0.80;;;35.60;32.10;;;;;;5056649;28;20424;-69
2022/07/05 08:58:54;;;;;;;0.40;0.30;;;33.40;36.10;;;;;;5056415;28;20405;-70
2022/07/05 09:01:21;;;;;;;0.30;0.30;;;32.00;41.20;;;;;;5056694;28;20458;-69
2022/07/05 09:03:51;;;;;;;0.40;0.40;;;31.80;38.40;;;;;;5056624;28;20166;-69
2022/07/05 09:06:20;;;;;;;0.40;0.30;;;33.40;38.00;;;;;;5056337;28;20523;-68
2022/07/05 09:08:47;;;;;;;0.40;0.40;;;34.40;35.90;;;;;;5056124;28;20866;-69
2022/07/05 09:11:15;;;;;;;0.40;0.40;;;35.60;35.20;;;;;;5056568;28;20403;-69
2022/07/05 09:13:43;;;;;;;0.40;0.30;;;33.80;33.60;;;;;;5056578;28;20458;-70
2022/07/05 09:16:09;;;;;;;0.40;0.40;;;31.90;38.50;;;;;;5056419;28;20424;-70
2022/07/05 09:18:44;;;;;;;0.50;0.43;;;30.20;41.20;;;;;;5056270;28;20916;-71
2022/07/05 09:21:19;;;;;;;0.30;0.30;;;28.70;44.80;;;;;;5056283;28;20407;-69
2022/07/05 09:23:57;;;;;;;0.30;0.30;;;27.80;45.80;;;;;;5056150;28;20776;-71
2022/07/05 09:26:40;;;;;;;0.80;0.50;;;28.10;44.90;;;;;;5056337;28;20783;-71
2022/07/05 09:29:09;;;;;;;0.30;0.30;;;28.60;43.90;;;;;;5056041;28;20766;-70
2022/07/05 09:31:42;;;;;;;0.40;0.40;;;28.40;43.00;;;;;;5056120;28;20397;-69
2022/07/05 09:34:09;;;;;;;1.37;0.77;;;28.00;45.30;;;;;;5056212;28;20475;-69
2022/07/05 09:36:52;;;;;;;0.30;0.30;;;27.50;44.60;;;;;;5055871;28;20412;-70
2022/07/05 09:39:33;;;;;;;0.40;0.40;;;26.80;46.20;;;;;;5055741;28;20920;-71
2022/07/05 09:42:13;;;;;;;0.30;0.30;;;27.90;46.20;;;;;;5055980;28;20476;-69
2022/07/05 09:44:44;;;;;;;0.40;0.40;;;28.20;42.30;;;;;;5055980;28;20483;-70
2022/07/05 09:47:12;;;;;;;0.30;0.30;;;28.10;43.00;;;;;;5055518;28;20484;-69
2022/07/05 09:49:40;;;;;;;0.37;0.37;;;27.30;46.00;;;;;;5055553;28;20807;-70
2022/07/05 09:52:06;;;;;;;0.33;0.33;;;27.30;47.20;;;;;;5055673;28;20881;-70
2022/07/05 09:54:32;;;;;;;0.40;0.30;;;28.30;47.40;;;;;;5055744;28;20408;-69
2022/07/05 09:56:58;;;;;;;0.30;0.30;;;28.40;47.50;;;;;;5055664;28;20194;-70
2022/07/05 09:59:23;;;;;;;0.30;0.30;;;27.80;46.20;;;;;;5055338;28;20458;-70
2022/07/05 10:01:50;;;;;;;0.30;0.30;;;26.90;48.70;;;;;;5055535;28;20220;-69
2022/07/05 10:04:16;;;;;;;0.30;0.30;;;26.20;55.10;;;;;;5055589;28;20177;-70
2022/07/05 10:06:42;;;;;;;0.30;0.30;;;26.90;54.20;;;;;;5055197;28;20940;-70
2022/07/05 10:09:10;;;;;;;0.40;0.40;;;28.70;53.60;;;;;;5055270;28;20167;-70
2022/07/05 10:11:39;;;;;;;0.30;0.30;;;30.50;46.00;;;;;;5055361;28;20405;-70
2022/07/05 10:14:14;;;;;;;0.30;0.30;;;31.80;44.30;;;;;;5055351;28;20408;-70
2022/07/05 10:16:41;;;;;;;0.30;0.30;;;32.50;40.60;;;;;;5055176;28;20503;-70
2022/07/05 10:19:11;;;;;;;0.50;0.40;;;31.40;41.90;;;;;;5054895;28;20393;-71
2022/07/05 10:21:38;;;;;;;1.00;1.00;;;30.10;44.10;;;;;;5055279;28;20408;-70
2022/07/05 10:24:04;;;;;;;0.40;0.40;;;28.70;46.40;;;;;;5055068;28;20507;-70
2022/07/05 10:26:33;;;;;;;0.40;0.37;;;28.00;49.20;;;;;;5054939;28;20508;-71
2022/07/05 10:29:00;;;;;;;0.60;0.60;;;27.20;53.10;;;;;;5054692;28;20166;-70
2022/07/05 10:31:26;;;;;;;0.30;0.30;;;26.80;50.50;;;;;;5053611;28;20773;-70
2022/07/05 10:33:54;;;;;;;0.40;0.40;;;26.40;53.90;;;;;;5054917;28;20491;-69
2022/07/05 10:36:20;;;;;;;0.40;0.40;;;26.00;51.80;;;;;;5054788;28;20757;-70
2022/07/05 10:38:47;;;;;;;0.30;0.30;;;25.80;52.30;;;;;;5054785;28;20412;-70
2022/07/05 10:41:18;;;;;;;0.30;0.30;;;25.70;53.40;;;;;;5054937;28;20472;-70
2022/07/05 10:43:44;;;;;;;0.43;0.43;;;25.90;54.20;;;;;;5054909;28;20400;-69
2022/07/05 10:46:09;;;;;;;0.30;0.30;;;26.00;53.70;;;;;;5054752;28;20406;-70
2022/07/05 10:48:36;;;;;;;0.80;0.80;;;25.90;53.20;;;;;;5054657;28;20211;-69
2022/07/05 10:51:14;;;;;;;0.30;0.30;;;25.40;56.10;;;;;;5054514;28;20643;-70
2022/07/05 10:53:40;;;;;;;0.30;0.30;;;25.40;58.00;;;;;;5054754;28;20489;-69
2022/07/05 10:56:06;;;;;;;0.80;0.63;;;25.00;55.10;;;;;;5054508;28;20498;-69
2022/07/05 10:58:38;;;;;;;0.50;0.50;;;24.70;55.90;;;;;;5054217;28;20173;-71
2022/07/05 11:01:15;;;;;;;0.30;0.30;;;25.00;61.00;;;;;;5054520;28;20171;-70
2022/07/05 11:03:50;;;;;;;0.30;0.30;;;25.70;61.40;;;;;;5054321;28;20410;-71
2022/07/05 11:06:41;;;;;;;0.40;0.40;;;26.20;55.40;;;;;;5053861;28;20397;-70
2022/07/05 11:09:09;;;;;;;0.30;0.30;;;26.60;55.00;;;;;;5054385;28;20419;-70
2022/07/05 11:11:37;;;;;;;0.50;0.50;;;26.70;53.80;;;;;;5054196;28;20519;-69
2022/07/05 11:14:04;;;;;;;0.60;0.60;;;26.80;54.90;;;;;;5054324;28;20396;-69
2022/07/05 11:16:35;;;;;;;0.40;0.40;;;27.00;56.50;;;;;;5052905;28;20432;-69
2022/07/05 11:19:08;;;;;;;0.40;0.40;;;27.10;55.70;;;;;;5053930;28;20400;-70
2022/07/05 11:21:36;;;;;;;0.30;0.30;;;27.20;52.20;;;;;;5054291;28;20388;-69
2022/07/05 11:24:17;;;;;;;0.43;0.40;;;27.10;55.80;;;;;;5053990;28;20425;-70
2022/07/05 11:26:43;;;;;;;0.50;0.40;;;27.20;53.20;;;;;;5053953;28;20448;-70
2022/07/05 11:29:43;;;;;;;0.50;0.50;;;27.30;55.20;;;;;;5053770;28;20466;-70
2022/07/05 11:32:12;;;;;;;0.30;0.30;;;27.40;53.10;;;;;;5054042;28;20504;-70
2022/07/05 11:34:39;;;;;;;1.37;0.87;;;27.30;53.40;;;;;;5053919;28;20458;-70
2022/07/05 11:37:23;;;;;;;0.50;0.50;;;27.20;55.70;;;;;;5053769;28;20856;-70
2022/07/05 11:40:12;;;;;;;2.97;0.83;;;27.10;50.30;;;;;;5053551;28;20408;-69
2022/07/05 11:42:45;;;;;;;0.40;0.40;;;27.30;55.40;;;;;;5053672;28;20826;-71
2022/07/05 11:45:11;;;;;;;0.30;0.30;;;27.50;56.90;;;;;;5053968;28;20417;-69
2022/07/05 11:47:37;;;;;;;0.40;0.40;;;27.40;51.50;;;;;;5052278;28;20458;-70
2022/07/05 11:50:04;;;;;;;0.30;0.30;;;27.40;50.40;;;;;;5053573;28;20407;-69
2022/07/05 11:52:32;;;;;;;0.40;0.37;;;27.20;51.60;;;;;;5053672;28;20491;-70
2022/07/05 11:54:59;;;;;;;0.30;0.30;;;27.30;48.40;;;;;;5053575;28;20425;-69
2022/07/05 11:57:25;;;;;;;0.40;0.40;;;27.10;49.70;;;;;;5053469;28;20512;-70
2022/07/05 11:59:51;;;;;;;0.30;0.30;;;27.10;50.00;;;;;;5053412;28;20492;-71
2022/07/05 12:02:18;;;;;;;0.30;0.30;;;26.60;52.30;;;;;;5053710;28;20462;-69
2022/07/05 12:04:51;;;;;;;0.30;0.30;;;26.80;51.20;;;;;;5053560;28;20500;-70
2022/07/05 12:07:30;;;;;;;0.40;0.40;;;26.90;52.60;;;;;;5053205;28;20460;-70
2022/07/05 12:12:44;;;;;;;0.40;0.40;;;26.90;51.80;;;;;;5053808;28;20403;-70
2022/07/05 12:15:17;;;;;;;0.40;0.40;;;26.90;52.50;;;;;;5053081;28;20397;-70
2022/07/05 12:17:45;;;;;;;0.30;0.30;;;27.10;51.10;;;;;;5053600;28;20405;-70
2022/07/05 12:20:12;;;;;;;0.30;0.30;;;27.20;50.30;;;;;;5056999;28;20412;-69
2022/07/05 12:22:40;;;;;;;0.53;0.53;;;26.80;47.30;;;;;;5057346;28;20969;-69
2022/07/05 12:25:10;;;;;;;0.40;0.40;;;26.60;47.80;;;;;;5057411;28;20387;-70
2022/07/05 12:27:38;;;;;;;0.40;0.40;;;26.80;50.00;;;;;;5057257;28;20451;-70
2022/07/05 12:30:05;;;;;;;0.30;0.30;;;26.70;48.80;;;;;;5057144;28;20401;-69
2022/07/05 12:32:32;;;;;;;0.50;0.50;;;26.70;48.10;;;;;;5056045;28;20415;-69
2022/07/05 12:34:58;;;;;;;0.30;0.30;;;26.10;48.60;;;;;;5057321;28;20401;-70
2022/07/05 12:37:26;;;;;;;0.40;0.40;;;26.00;48.50;;;;;;5057049;28;20405;-70
2022/07/05 12:40:09;;;;;;;0.40;0.40;;;26.10;48.70;;;;;;5057081;28;20408;-70
2022/07/05 12:42:37;;;;;;;0.40;0.40;;;26.20;48.90;;;;;;5057413;28;20386;-70
2022/07/05 12:45:08;;;;;;;0.40;0.40;;;26.30;48.70;;;;;;5056990;28;20411;-70
2022/07/05 12:47:49;;;;;;;1.07;1.07;;;26.50;49.20;;;;;;5057064;28;20521;-70
2022/07/05 12:50:14;;;;;;;0.30;0.30;;;26.30;49.20;;;;;;5056764;28;20980;-70
2022/07/05 12:58:33;;;;;;;0.30;0.30;;;26.30;52.50;;;;;;5056902;28;20790;-69
2022/07/05 13:00:58;;;;;;;0.37;0.37;;;26.20;50.00;;;;;;5056595;28;20405;-69
2022/07/05 13:03:24;;;;;;;0.30;0.30;;;26.10;48.60;;;;;;5056905;28;20174;-69